Fruitland, NM

1:11 AM MDT on June 29, 2017 (GMT -0600)
Four Corners Regional | | Change Station

Elev 5505 ft 36.74 °N, 108.23 °W | Updated 18 minutes ago

Clear
Clear
72 °F
Feels Like 72 °F
N
13
Wind Variable Wind from West

Today
High -- | Low -- °F
--% Chance of Precip.
Yesterday
High -- | Low -- °F
Precip. -- in
Pressure 29.72 in
Visibility 10.0 miles
Clouds Clear
Dew Point 26 °F
Humidity 18%
Rainfall 0.00 in
Snow Depth Not available.
5:58 AM 8:36 PM
Waxing Crescent, 32% visible
METAR KFMN 290653Z AUTO 26011KT 10SM CLR 22/M03 A2995 RMK AO2 SLP062 T02221033 403500089
Pressure 29.72 in
Visibility 10.0 miles
Clouds Clear
Dew Point 26 °F
Humidity 18%
Rainfall 0.00 in
Snow Depth Not available.
5:58 AM 8:36 PM
Waxing Crescent, 32% visible
METAR KFMN 290653Z AUTO 26011KT 10SM CLR 22/M03 A2995 RMK AO2 SLP062 T02221033 403500089

Get Severe Weather Alerts

Thanks for signing up!

Be on the lookout for a verification email in your inbox.

You'll start receiving the daily forecast at 6 AM.

×

10-Day Weather Forecast

Almanac

Astronomy

Jun. 29, 2017 Rise Set
Actual Time
Civil Twilight
Nautical Twilight
Astronomical Twilight
Moon
Length of Visible Light
Length of Day
Tomorrow will be .
, % of the Moon is Illuminated

Today's Extremes

State Highs State Lows

Community

WunderPhotos

Category 6

Welcome to Category 6. This is the collective home for Weather Underground's featured writeups by Dr. Jeff Masters (right), Bob Henson (left), Chris Burt, and other regular contributors.

Nearby

Air Quality

  Air Quality AQ Index Pollutant
Not available.

Snow Depth

Station Depth Elevation

Earthquake Activity

City Distance Mag. Time & Date
Minimum magnitude displayed is 2.5.

Coastal Water Temperatures

Place Temperature

Stations

Nearby Weather Stations

Station Location Temp. Windchill Dew Point Humidity Wind Precip. Elev Updated Type
                   

Watches & Warnings

There are currently no watches in effect.